sensor_id;sensor_type;location;lat;lon;timestamp;pressure;altitude;pressure_sealevel;temperature;humidity
76519;BME280;67029;51.054;13.798;2023-02-28T00:02:10;101710.11;;;5.26;52.86
76519;BME280;67029;51.054;13.798;2023-02-28T00:04:40;101709.47;;;5.25;52.93
76519;BME280;67029;51.054;13.798;2023-02-28T00:07:10;101711.62;;;5.26;52.86
76519;BME280;67029;51.054;13.798;2023-02-28T00:09:40;101708.80;;;5.25;52.77
76519;BME280;67029;51.054;13.798;2023-02-28T00:12:10;101707.91;;;5.25;52.79
76519;BME280;67029;51.054;13.798;2023-02-28T00:14:40;101708.75;;;5.25;52.74
76519;BME280;67029;51.054;13.798;2023-02-28T00:17:10;101704.91;;;5.25;52.74
76519;BME280;67029;51.054;13.798;2023-02-28T00:19:40;101704.59;;;5.24;52.76
76519;BME280;67029;51.054;13.798;2023-02-28T00:22:10;101697.52;;;5.25;52.70
76519;BME280;67029;51.054;13.798;2023-02-28T00:24:40;101701.21;;;5.25;52.63
76519;BME280;67029;51.054;13.798;2023-02-28T00:27:11;101700.94;;;5.22;52.65
76519;BME280;67029;51.054;13.798;2023-02-28T00:29:41;101697.44;;;5.20;52.69
76519;BME280;67029;51.054;13.798;2023-02-28T00:32:11;101699.06;;;5.19;52.71
76519;BME280;67029;51.054;13.798;2023-02-28T00:34:41;101701.78;;;5.14;52.72
76519;BME280;67029;51.054;13.798;2023-02-28T00:37:11;101697.52;;;5.11;52.74
76519;BME280;67029;51.054;13.798;2023-02-28T00:39:41;101701.47;;;5.09;52.85
76519;BME280;67029;51.054;13.798;2023-02-28T00:42:11;101701.49;;;5.07;52.82
76519;BME280;67029;51.054;13.798;2023-02-28T00:44:41;101703.53;;;5.02;52.82
76519;BME280;67029;51.054;13.798;2023-02-28T00:47:11;101705.00;;;5.01;52.87
76519;BME280;67029;51.054;13.798;2023-02-28T00:49:41;101707.34;;;4.99;52.94
76519;BME280;67029;51.054;13.798;2023-02-28T00:52:11;101707.87;;;5.00;52.91
76519;BME280;67029;51.054;13.798;2023-02-28T00:54:41;101710.80;;;5.00;52.94
76519;BME280;67029;51.054;13.798;2023-02-28T00:57:11;101705.94;;;5.00;52.88
76519;BME280;67029;51.054;13.798;2023-02-28T00:59:41;101701.44;;;5.02;52.79
76519;BME280;67029;51.054;13.798;2023-02-28T01:02:11;101700.40;;;4.99;52.81
76519;BME280;67029;51.054;13.798;2023-02-28T01:04:41;101702.23;;;4.98;52.86
76519;BME280;67029;51.054;13.798;2023-02-28T01:07:11;101703.88;;;4.98;52.95
76519;BME280;67029;51.054;13.798;2023-02-28T01:09:41;101702.02;;;4.97;52.95
76519;BME280;67029;51.054;13.798;2023-02-28T01:12:11;101703.84;;;5.00;52.96
76519;BME280;67029;51.054;13.798;2023-02-28T01:14:42;101705.39;;;5.00;52.92
76519;BME280;67029;51.054;13.798;2023-02-28T01:17:12;101702.48;;;4.91;52.88
76519;BME280;67029;51.054;13.798;2023-02-28T01:19:42;101701.41;;;4.80;52.99
76519;BME280;67029;51.054;13.798;2023-02-28T01:22:12;101697.98;;;4.81;53.22
76519;BME280;67029;51.054;13.798;2023-02-28T01:24:42;101696.94;;;4.85;53.11
76519;BME280;67029;51.054;13.798;2023-02-28T01:27:12;101696.17;;;4.87;53.06
76519;BME280;67029;51.054;13.798;2023-02-28T01:29:42;101697.16;;;4.89;53.02
76519;BME280;67029;51.054;13.798;2023-02-28T01:32:12;101700.72;;;4.90;53.02
76519;BME280;67029;51.054;13.798;2023-02-28T01:34:42;101699.45;;;4.92;53.01
76519;BME280;67029;51.054;13.798;2023-02-28T01:37:12;101694.71;;;4.91;52.98
76519;BME280;67029;51.054;13.798;2023-02-28T01:39:42;101693.96;;;4.92;52.91
76519;BME280;67029;51.054;13.798;2023-02-28T01:42:12;101694.77;;;4.90;52.97
76519;BME280;67029;51.054;13.798;2023-02-28T01:45:02;101692.80;;;4.89;52.99
76519;BME280;67029;51.054;13.798;2023-02-28T01:47:13;101691.78;;;4.88;52.93
76519;BME280;67029;51.054;13.798;2023-02-28T01:49:43;101694.48;;;4.86;53.01
76519;BME280;67029;51.054;13.798;2023-02-28T01:52:14;101691.75;;;4.85;53.09
76519;BME280;67029;51.054;13.798;2023-02-28T01:54:50;101686.03;;;4.84;53.09
76519;BME280;67029;51.054;13.798;2023-02-28T01:57:17;101690.42;;;4.83;53.16
76519;BME280;67029;51.054;13.798;2023-02-28T01:59:52;101688.46;;;4.84;53.16
76519;BME280;67029;51.054;13.798;2023-02-28T02:02:18;101688.41;;;4.82;53.15
76519;BME280;67029;51.054;13.798;2023-02-28T02:04:54;101685.39;;;4.79;53.21
76519;BME280;67029;51.054;13.798;2023-02-28T02:07:17;101683.06;;;4.80;53.28
76519;BME280;67029;51.054;13.798;2023-02-28T02:09:47;101685.27;;;4.79;53.27
76519;BME280;67029;51.054;13.798;2023-02-28T02:12:38;101684.59;;;4.79;53.35
76519;BME280;67029;51.054;13.798;2023-02-28T02:14:58;101685.55;;;4.77;53.27
76519;BME280;67029;51.054;13.798;2023-02-28T02:17:44;101681.55;;;4.72;53.29
76519;BME280;67029;51.054;13.798;2023-02-28T02:27:33;101675.69;;;4.61;53.59
76519;BME280;67029;51.054;13.798;2023-02-28T02:30:26;101681.83;;;4.57;53.65
76519;BME280;67029;51.054;13.798;2023-02-28T02:34:59;101678.77;;;4.53;53.77
76519;BME280;67029;51.054;13.798;2023-02-28T02:37:34;101674.34;;;4.50;53.83
76519;BME280;67029;51.054;13.798;2023-02-28T02:40:00;101672.09;;;4.52;53.98
76519;BME280;67029;51.054;13.798;2023-02-28T02:42:28;101675.23;;;4.55;53.83
76519;BME280;67029;51.054;13.798;2023-02-28T02:45:08;101674.08;;;4.53;53.78
76519;BME280;67029;51.054;13.798;2023-02-28T02:47:29;101678.10;;;4.53;53.87
76519;BME280;67029;51.054;13.798;2023-02-28T02:49:58;101683.09;;;4.55;53.81
76519;BME280;67029;51.054;13.798;2023-02-28T02:52:41;101680.03;;;4.54;53.79
76519;BME280;67029;51.054;13.798;2023-02-28T02:54:58;101681.87;;;4.53;53.83
76519;BME280;67029;51.054;13.798;2023-02-28T02:57:34;101678.62;;;4.52;53.82
76519;BME280;67029;51.054;13.798;2023-02-28T02:59:59;101680.81;;;4.52;53.92
76519;BME280;67029;51.054;13.798;2023-02-28T03:02:29;101680.31;;;4.52;53.91
76519;BME280;67029;51.054;13.798;2023-02-28T03:05:01;101688.52;;;4.52;53.89
76519;BME280;67029;51.054;13.798;2023-02-28T03:07:30;101686.69;;;4.54;53.91
76519;BME280;67029;51.054;13.798;2023-02-28T03:10:00;101686.05;;;4.53;53.90
76519;BME280;67029;51.054;13.798;2023-02-28T03:12:44;101688.42;;;4.49;53.93
76519;BME280;67029;51.054;13.798;2023-02-28T03:15:11;101687.09;;;4.50;54.27
76519;BME280;67029;51.054;13.798;2023-02-28T03:20:17;101682.52;;;4.42;54.13
76519;BME280;67029;51.054;13.798;2023-02-28T03:22:49;101685.51;;;4.37;54.18
76519;BME280;67029;51.054;13.798;2023-02-28T03:25:27;101683.12;;;4.33;54.27
76519;BME280;67029;51.054;13.798;2023-02-28T03:32:43;101679.05;;;4.26;54.30
76519;BME280;67029;51.054;13.798;2023-02-28T03:35:25;101678.91;;;4.19;54.36
76519;BME280;67029;51.054;13.798;2023-02-28T03:37:37;101682.06;;;4.17;54.48
76519;BME280;67029;51.054;13.798;2023-02-28T03:40:08;101684.72;;;4.15;54.50
76519;BME280;67029;51.054;13.798;2023-02-28T03:42:37;101683.17;;;4.13;54.51
76519;BME280;67029;51.054;13.798;2023-02-28T03:45:13;101684.84;;;4.09;54.59
76519;BME280;67029;51.054;13.798;2023-02-28T03:47:55;101683.37;;;4.06;54.54
76519;BME280;67029;51.054;13.798;2023-02-28T03:50:10;101685.89;;;4.01;54.62
76519;BME280;67029;51.054;13.798;2023-02-28T03:52:42;101685.34;;;3.98;54.72
76519;BME280;67029;51.054;13.798;2023-02-28T03:55:11;101691.80;;;3.93;54.64
76519;BME280;67029;51.054;13.798;2023-02-28T03:57:44;101693.05;;;3.88;54.70
76519;BME280;67029;51.054;13.798;2023-02-28T04:00:17;101701.45;;;3.85;54.71
76519;BME280;67029;51.054;13.798;2023-02-28T04:02:40;101693.59;;;3.80;54.96
76519;BME280;67029;51.054;13.798;2023-02-28T04:05:10;101696.47;;;3.76;54.79
76519;BME280;67029;51.054;13.798;2023-02-28T04:07:40;101699.35;;;3.73;55.06
76519;BME280;67029;51.054;13.798;2023-02-28T04:10:11;101700.05;;;3.67;54.97
76519;BME280;67029;51.054;13.798;2023-02-28T04:12:40;101708.33;;;3.60;55.03
76519;BME280;67029;51.054;13.798;2023-02-28T04:15:10;101710.34;;;3.58;55.29
76519;BME280;67029;51.054;13.798;2023-02-28T04:17:40;101710.88;;;3.50;55.15
76519;BME280;67029;51.054;13.798;2023-02-28T04:20:11;101711.48;;;3.44;55.27
76519;BME280;67029;51.054;13.798;2023-02-28T04:22:41;101714.33;;;3.42;55.34
76519;BME280;67029;51.054;13.798;2023-02-28T04:25:11;101715.66;;;3.43;55.61
76519;BME280;67029;51.054;13.798;2023-02-28T04:27:41;101719.16;;;3.41;55.45
76519;BME280;67029;51.054;13.798;2023-02-28T04:30:11;101719.12;;;3.36;55.61
76519;BME280;67029;51.054;13.798;2023-02-28T04:32:41;101720.44;;;3.33;55.56
76519;BME280;67029;51.054;13.798;2023-02-28T04:35:11;101720.42;;;3.32;55.75
76519;BME280;67029;51.054;13.798;2023-02-28T04:37:41;101724.20;;;3.26;55.69
76519;BME280;67029;51.054;13.798;2023-02-28T04:40:12;101719.05;;;3.21;55.77
76519;BME280;67029;51.054;13.798;2023-02-28T04:42:42;101722.15;;;3.17;55.79
76519;BME280;67029;51.054;13.798;2023-02-28T04:45:12;101726.80;;;3.13;55.83
76519;BME280;67029;51.054;13.798;2023-02-28T04:47:42;101725.92;;;3.09;55.80
76519;BME280;67029;51.054;13.798;2023-02-28T04:50:12;101721.30;;;3.08;56.37
76519;BME280;67029;51.054;13.798;2023-02-28T04:52:42;101725.09;;;3.07;56.30
76519;BME280;67029;51.054;13.798;2023-02-28T04:55:12;101722.15;;;3.06;56.55
76519;BME280;67029;51.054;13.798;2023-02-28T04:57:42;101724.18;;;3.00;56.35
76519;BME280;67029;51.054;13.798;2023-02-28T05:00:12;101721.22;;;2.97;56.64
76519;BME280;67029;51.054;13.798;2023-02-28T05:02:42;101724.75;;;2.96;56.92
76519;BME280;67029;51.054;13.798;2023-02-28T05:05:12;101730.09;;;2.89;56.51
76519;BME280;67029;51.054;13.798;2023-02-28T05:07:42;101724.00;;;2.83;56.80
76519;BME280;67029;51.054;13.798;2023-02-28T05:10:12;101724.67;;;2.83;56.78
76519;BME280;67029;51.054;13.798;2023-02-28T05:12:42;101730.42;;;2.83;56.75
76519;BME280;67029;51.054;13.798;2023-02-28T05:15:13;101732.52;;;2.81;56.82
76519;BME280;67029;51.054;13.798;2023-02-28T05:17:43;101732.88;;;2.80;56.92
76519;BME280;67029;51.054;13.798;2023-02-28T05:20:13;101733.69;;;2.77;56.83
76519;BME280;67029;51.054;13.798;2023-02-28T05:22:43;101736.96;;;2.76;56.90
76519;BME280;67029;51.054;13.798;2023-02-28T05:25:17;101734.88;;;2.73;56.81
76519;BME280;67029;51.054;13.798;2023-02-28T05:27:44;101738.44;;;2.66;56.89
76519;BME280;67029;51.054;13.798;2023-02-28T05:30:14;101738.02;;;2.67;57.16
76519;BME280;67029;51.054;13.798;2023-02-28T05:32:50;101744.29;;;2.67;56.94
76519;BME280;67029;51.054;13.798;2023-02-28T05:35:15;101743.04;;;2.59;56.97
76519;BME280;67029;51.054;13.798;2023-02-28T05:37:45;101743.09;;;2.58;57.10
76519;BME280;67029;51.054;13.798;2023-02-28T05:40:16;101747.27;;;2.58;57.03
76519;BME280;67029;51.054;13.798;2023-02-28T05:42:46;101742.62;;;2.55;56.98
76519;BME280;67029;51.054;13.798;2023-02-28T05:45:16;101745.83;;;2.53;57.06
76519;BME280;67029;51.054;13.798;2023-02-28T05:47:46;101745.11;;;2.52;56.99
76519;BME280;67029;51.054;13.798;2023-02-28T05:50:16;101745.70;;;2.52;57.04
76519;BME280;67029;51.054;13.798;2023-02-28T05:52:52;101746.88;;;2.49;57.07
76519;BME280;67029;51.054;13.798;2023-02-28T05:55:17;101743.37;;;2.49;57.47
76519;BME280;67029;51.054;13.798;2023-02-28T05:57:47;101750.20;;;2.45;57.13
76519;BME280;67029;51.054;13.798;2023-02-28T06:00:18;101751.67;;;2.41;57.25
76519;BME280;67029;51.054;13.798;2023-02-28T06:02:48;101755.69;;;2.40;57.22
76519;BME280;67029;51.054;13.798;2023-02-28T06:05:18;101758.34;;;2.38;57.25
76519;BME280;67029;51.054;13.798;2023-02-28T06:07:48;101755.25;;;2.35;57.18
76519;BME280;67029;51.054;13.798;2023-02-28T06:10:18;101763.10;;;2.34;57.23
76519;BME280;67029;51.054;13.798;2023-02-28T06:12:48;101766.23;;;2.31;57.33
76519;BME280;67029;51.054;13.798;2023-02-28T06:15:18;101768.99;;;2.31;57.36
76519;BME280;67029;51.054;13.798;2023-02-28T06:17:48;101762.89;;;2.32;57.43
76519;BME280;67029;51.054;13.798;2023-02-28T06:20:18;101768.09;;;2.33;57.47
76519;BME280;67029;51.054;13.798;2023-02-28T06:22:48;101770.95;;;2.32;57.44
76519;BME280;67029;51.054;13.798;2023-02-28T06:25:18;101772.07;;;2.31;57.41
76519;BME280;67029;51.054;13.798;2023-02-28T06:27:48;101781.25;;;2.31;57.45
76519;BME280;67029;51.054;13.798;2023-02-28T06:30:18;101782.02;;;2.31;57.43
76519;BME280;67029;51.054;13.798;2023-02-28T06:32:48;101781.09;;;2.33;57.53
76519;BME280;67029;51.054;13.798;2023-02-28T06:35:18;101785.37;;;2.34;57.52
76519;BME280;67029;51.054;13.798;2023-02-28T06:37:48;101788.69;;;2.35;57.57
76519;BME280;67029;51.054;13.798;2023-02-28T06:40:18;101796.03;;;2.33;57.56
76519;BME280;67029;51.054;13.798;2023-02-28T06:42:48;101801.53;;;2.33;57.54
76519;BME280;67029;51.054;13.798;2023-02-28T06:45:18;101798.12;;;2.33;57.56
76519;BME280;67029;51.054;13.798;2023-02-28T06:47:48;101805.38;;;2.33;57.58
76519;BME280;67029;51.054;13.798;2023-02-28T06:50:18;101808.07;;;2.34;57.58
76519;BME280;67029;51.054;13.798;2023-02-28T06:52:48;101812.14;;;2.35;57.63
76519;BME280;67029;51.054;13.798;2023-02-28T06:55:18;101811.98;;;2.36;57.61
76519;BME280;67029;51.054;13.798;2023-02-28T06:57:48;101816.06;;;2.39;57.68
76519;BME280;67029;51.054;13.798;2023-02-28T07:00:19;101817.41;;;2.43;57.80
76519;BME280;67029;51.054;13.798;2023-02-28T07:02:49;101822.03;;;2.46;57.70
76519;BME280;67029;51.054;13.798;2023-02-28T07:05:19;101821.61;;;2.50;57.74
76519;BME280;67029;51.054;13.798;2023-02-28T07:07:49;101822.53;;;2.56;57.86
76519;BME280;67029;51.054;13.798;2023-02-28T07:10:19;101826.17;;;2.63;57.91
76519;BME280;67029;51.054;13.798;2023-02-28T07:12:49;101821.98;;;2.74;58.07
76519;BME280;67029;51.054;13.798;2023-02-28T07:15:19;101825.30;;;2.86;57.95
76519;BME280;67029;51.054;13.798;2023-02-28T07:17:49;101831.05;;;2.98;57.88
76519;BME280;67029;51.054;13.798;2023-02-28T07:20:19;101828.81;;;3.11;57.86
76519;BME280;67029;51.054;13.798;2023-02-28T07:22:50;101829.81;;;3.27;57.79
76519;BME280;67029;51.054;13.798;2023-02-28T07:25:20;101828.70;;;3.41;57.79
76519;BME280;67029;51.054;13.798;2023-02-28T07:27:50;101825.53;;;3.61;57.35
76519;BME280;67029;51.054;13.798;2023-02-28T07:30:23;101824.27;;;3.86;56.97
76519;BME280;67029;51.054;13.798;2023-02-28T07:32:51;101826.05;;;4.07;56.74
76519;BME280;67029;51.054;13.798;2023-02-28T07:35:21;101827.22;;;4.33;56.32
76519;BME280;67029;51.054;13.798;2023-02-28T07:37:51;101826.63;;;4.61;56.07
76519;BME280;67029;51.054;13.798;2023-02-28T07:40:21;101825.23;;;4.84;55.95
76519;BME280;67029;51.054;13.798;2023-02-28T07:42:52;101822.07;;;5.15;55.81
76519;BME280;67029;51.054;13.798;2023-02-28T07:45:22;101820.42;;;5.51;55.25
76519;BME280;67029;51.054;13.798;2023-02-28T07:47:52;101820.70;;;5.88;54.46
76519;BME280;67029;51.054;13.798;2023-02-28T07:50:22;101821.41;;;6.17;53.98
76519;BME280;67029;51.054;13.798;2023-02-28T07:52:52;101822.42;;;6.60;53.31
76519;BME280;67029;51.054;13.798;2023-02-28T07:55:23;101817.71;;;7.06;51.57
76519;BME280;67029;51.054;13.798;2023-02-28T07:57:53;101824.94;;;7.53;50.65
76519;BME280;67029;51.054;13.798;2023-02-28T08:00:23;101821.63;;;7.90;49.10
76519;BME280;67029;51.054;13.798;2023-02-28T08:02:53;101820.20;;;8.23;48.88
76519;BME280;67029;51.054;13.798;2023-02-28T08:05:23;101818.14;;;8.54;47.50
76519;BME280;67029;51.054;13.798;2023-02-28T08:07:53;101822.13;;;8.79;46.14
76519;BME280;67029;51.054;13.798;2023-02-28T08:10:23;101822.84;;;9.07;46.51
76519;BME280;67029;51.054;13.798;2023-02-28T08:12:53;101817.31;;;9.36;45.79
76519;BME280;67029;51.054;13.798;2023-02-28T08:15:23;101813.09;;;9.58;44.17
76519;BME280;67029;51.054;13.798;2023-02-28T08:17:53;101816.95;;;9.74;43.81
76519;BME280;67029;51.054;13.798;2023-02-28T08:20:24;101815.30;;;9.75;43.28
76519;BME280;67029;51.054;13.798;2023-02-28T08:22:54;101810.97;;;9.79;43.13
76519;BME280;67029;51.054;13.798;2023-02-28T08:25:24;101812.14;;;9.75;41.82
76519;BME280;67029;51.054;13.798;2023-02-28T08:27:54;101819.23;;;9.68;42.70
76519;BME280;67029;51.054;13.798;2023-02-28T08:30:24;101815.94;;;9.63;42.42
76519;BME280;67029;51.054;13.798;2023-02-28T08:32:55;101814.28;;;9.58;42.54
76519;BME280;67029;51.054;13.798;2023-02-28T08:35:25;101820.63;;;9.54;42.47
76519;BME280;67029;51.054;13.798;2023-02-28T08:37:55;101821.67;;;9.49;42.95
76519;BME280;67029;51.054;13.798;2023-02-28T08:40:25;101823.38;;;9.44;42.83
76519;BME280;67029;51.054;13.798;2023-02-28T08:42:55;101820.03;;;9.40;42.83
76519;BME280;67029;51.054;13.798;2023-02-28T08:45:26;101824.50;;;9.30;43.43
76519;BME280;67029;51.054;13.798;2023-02-28T08:47:56;101828.05;;;9.21;43.21
76519;BME280;67029;51.054;13.798;2023-02-28T08:50:26;101832.39;;;9.13;43.57
76519;BME280;67029;51.054;13.798;2023-02-28T08:52:56;101831.48;;;9.07;43.12
76519;BME280;67029;51.054;13.798;2023-02-28T08:55:26;101827.08;;;9.12;43.24
76519;BME280;67029;51.054;13.798;2023-02-28T08:57:57;101831.23;;;9.18;43.00
76519;BME280;67029;51.054;13.798;2023-02-28T09:00:26;101822.97;;;9.24;42.87
76519;BME280;67029;51.054;13.798;2023-02-28T09:02:56;101824.54;;;9.32;42.57
76519;BME280;67029;51.054;13.798;2023-02-28T09:05:26;101819.94;;;9.40;42.65
76519;BME280;67029;51.054;13.798;2023-02-28T09:07:57;101823.19;;;9.49;42.78
76519;BME280;67029;51.054;13.798;2023-02-28T09:10:27;101818.22;;;9.62;43.32
76519;BME280;67029;51.054;13.798;2023-02-28T09:12:57;101819.62;;;9.78;42.11
76519;BME280;67029;51.054;13.798;2023-02-28T09:15:27;101816.64;;;9.95;41.97
76519;BME280;67029;51.054;13.798;2023-02-28T09:17:57;101815.75;;;10.06;41.18
76519;BME280;67029;51.054;13.798;2023-02-28T09:20:27;101814.83;;;10.20;40.91
76519;BME280;67029;51.054;13.798;2023-02-28T09:22:57;101816.67;;;10.39;40.21
76519;BME280;67029;51.054;13.798;2023-02-28T09:25:27;101814.67;;;10.58;40.15
76519;BME280;67029;51.054;13.798;2023-02-28T09:27:57;101809.86;;;10.85;38.33
76519;BME280;67029;51.054;13.798;2023-02-28T09:30:27;101810.83;;;11.10;38.63
76519;BME280;67029;51.054;13.798;2023-02-28T09:32:57;101806.98;;;11.48;38.26
76519;BME280;67029;51.054;13.798;2023-02-28T09:35:27;101812.91;;;11.93;37.88
76519;BME280;67029;51.054;13.798;2023-02-28T09:37:57;101803.69;;;12.41;36.72
76519;BME280;67029;51.054;13.798;2023-02-28T09:40:27;101800.61;;;12.98;38.17
76519;BME280;67029;51.054;13.798;2023-02-28T09:42:58;101794.70;;;13.57;34.83
76519;BME280;67029;51.054;13.798;2023-02-28T09:45:37;101792.28;;;13.97;34.06
76519;BME280;67029;51.054;13.798;2023-02-28T09:48:04;101795.71;;;14.40;31.97
76519;BME280;67029;51.054;13.798;2023-02-28T09:50:40;101790.96;;;14.69;30.33
76519;BME280;67029;51.054;13.798;2023-02-28T09:53:02;101790.11;;;14.70;30.11
76519;BME280;67029;51.054;13.798;2023-02-28T09:55:46;101793.41;;;14.74;29.31
76519;BME280;67029;51.054;13.798;2023-02-28T09:58:01;101790.05;;;15.10;29.26
76519;BME280;67029;51.054;13.798;2023-02-28T10:00:39;101793.33;;;15.39;28.05
76519;BME280;67029;51.054;13.798;2023-02-28T10:03:25;101794.00;;;15.64;27.32
76519;BME280;67029;51.054;13.798;2023-02-28T10:05:43;101790.70;;;15.88;28.07
76519;BME280;67029;51.054;13.798;2023-02-28T10:08:14;101794.70;;;16.29;27.65
76519;BME280;67029;51.054;13.798;2023-02-28T10:10:50;101789.39;;;16.52;26.31
76519;BME280;67029;51.054;13.798;2023-02-28T10:13:13;101797.06;;;16.47;27.58
76519;BME280;67029;51.054;13.798;2023-02-28T10:15:35;101791.48;;;16.55;26.92
76519;BME280;67029;51.054;13.798;2023-02-28T10:18:09;101787.80;;;16.20;26.80
76519;BME280;67029;51.054;13.798;2023-02-28T10:20:39;101795.20;;;16.11;26.18
76519;BME280;67029;51.054;13.798;2023-02-28T10:23:28;101796.48;;;15.22;26.79
76519;BME280;67029;51.054;13.798;2023-02-28T10:25:38;101797.38;;;14.78;26.75
76519;BME280;67029;51.054;13.798;2023-02-28T10:28:13;101806.05;;;14.47;26.77
76519;BME280;67029;51.054;13.798;2023-02-28T10:30:41;101806.48;;;14.18;27.38
76519;BME280;67029;51.054;13.798;2023-02-28T10:33:23;101811.17;;;13.88;27.67
76519;BME280;67029;51.054;13.798;2023-02-28T10:35:38;101803.77;;;13.76;28.35
76519;BME280;67029;51.054;13.798;2023-02-28T10:38:32;101796.66;;;13.57;28.52
76519;BME280;67029;51.054;13.798;2023-02-28T10:40:39;101801.62;;;13.24;28.88
76519;BME280;67029;51.054;13.798;2023-02-28T10:43:19;101806.05;;;12.97;28.67
76519;BME280;67029;51.054;13.798;2023-02-28T10:46:01;101814.75;;;12.71;28.96
76519;BME280;67029;51.054;13.798;2023-02-28T10:50:52;101807.38;;;12.30;30.14
76519;BME280;67029;51.054;13.798;2023-02-28T10:55:41;101800.61;;;12.11;30.69
76519;BME280;67029;51.054;13.798;2023-02-28T10:58:21;101793.12;;;11.98;31.03
76519;BME280;67029;51.054;13.798;2023-02-28T11:00:42;101789.05;;;12.01;30.80
76519;BME280;67029;51.054;13.798;2023-02-28T11:03:32;101787.35;;;11.93;31.36
76519;BME280;67029;51.054;13.798;2023-02-28T11:05:43;101784.08;;;12.04;31.12
76519;BME280;67029;51.054;13.798;2023-02-28T11:08:17;101783.39;;;12.32;31.43
76519;BME280;67029;51.054;13.798;2023-02-28T11:10:48;101778.30;;;12.74;31.07
76519;BME280;67029;51.054;13.798;2023-02-28T11:13:19;101772.17;;;13.24;31.28
76519;BME280;67029;51.054;13.798;2023-02-28T11:15:53;101764.94;;;13.92;30.72
76519;BME280;67029;51.054;13.798;2023-02-28T11:18:27;101760.58;;;14.61;30.85
76519;BME280;67029;51.054;13.798;2023-02-28T11:20:51;101758.82;;;15.26;29.74
76519;BME280;67029;51.054;13.798;2023-02-28T11:23:17;101758.94;;;15.92;29.87
76519;BME280;67029;51.054;13.798;2023-02-28T11:25:56;101758.82;;;16.49;29.22
76519;BME280;67029;51.054;13.798;2023-02-28T11:28:31;101754.30;;;16.83;27.64
76519;BME280;67029;51.054;13.798;2023-02-28T11:33:28;101753.53;;;17.31;25.05
76519;BME280;67029;51.054;13.798;2023-02-28T11:35:50;101742.90;;;17.32;24.24
76519;BME280;67029;51.054;13.798;2023-02-28T11:38:19;101749.16;;;17.09;24.19
76519;BME280;67029;51.054;13.798;2023-02-28T11:43:46;101742.05;;;17.24;25.18
76519;BME280;67029;51.054;13.798;2023-02-28T11:46:06;101744.77;;;17.60;25.07
76519;BME280;67029;51.054;13.798;2023-02-28T11:51:08;101729.14;;;18.08;23.86
76519;BME280;67029;51.054;13.798;2023-02-28T11:56:03;101732.55;;;18.82;24.19
76519;BME280;67029;51.054;13.798;2023-02-28T11:58:33;101722.97;;;19.21;23.84
76519;BME280;67029;51.054;13.798;2023-02-28T12:11:25;101721.44;;;20.02;22.12
76519;BME280;67029;51.054;13.798;2023-02-28T12:21:26;101725.71;;;20.56;21.23
76519;BME280;67029;51.054;13.798;2023-02-28T12:23:48;101722.42;;;20.81;22.78
76519;BME280;67029;51.054;13.798;2023-02-28T12:28:35;101721.39;;;20.96;19.87
76519;BME280;67029;51.054;13.798;2023-02-28T12:33:34;101714.20;;;20.83;20.49
76519;BME280;67029;51.054;13.798;2023-02-28T12:36:05;101723.49;;;20.88;21.96
76519;BME280;67029;51.054;13.798;2023-02-28T12:38:44;101723.34;;;21.06;22.48
76519;BME280;67029;51.054;13.798;2023-02-28T12:41:03;101715.64;;;21.42;22.25
76519;BME280;67029;51.054;13.798;2023-02-28T12:43:36;101711.20;;;21.60;22.25
76519;BME280;67029;51.054;13.798;2023-02-28T12:46:12;101724.85;;;21.86;22.01
76519;BME280;67029;51.054;13.798;2023-02-28T12:48:38;101712.25;;;22.07;21.80
76519;BME280;67029;51.054;13.798;2023-02-28T12:51:04;101706.05;;;22.33;22.73
76519;BME280;67029;51.054;13.798;2023-02-28T12:58:36;101708.44;;;22.53;21.09
76519;BME280;67029;51.054;13.798;2023-02-28T13:01:15;101703.72;;;22.20;21.07
76519;BME280;67029;51.054;13.798;2023-02-28T13:09:13;101701.11;;;21.56;21.63
76519;BME280;67029;51.054;13.798;2023-02-28T13:11:07;101697.26;;;21.51;22.06
76519;BME280;67029;51.054;13.798;2023-02-28T13:13:37;101701.22;;;21.53;21.91
76519;BME280;67029;51.054;13.798;2023-02-28T13:16:09;101694.44;;;21.62;22.25
76519;BME280;67029;51.054;13.798;2023-02-28T13:18:39;101701.89;;;21.77;21.97
76519;BME280;67029;51.054;13.798;2023-02-28T13:21:10;101701.66;;;21.89;22.19
76519;BME280;67029;51.054;13.798;2023-02-28T13:23:56;101699.97;;;22.01;20.10
76519;BME280;67029;51.054;13.798;2023-02-28T13:26:10;101697.58;;;22.03;20.90
76519;BME280;67029;51.054;13.798;2023-02-28T13:29:01;101700.40;;;22.13;21.45
76519;BME280;67029;51.054;13.798;2023-02-28T13:31:10;101698.44;;;22.23;21.58
76519;BME280;67029;51.054;13.798;2023-02-28T13:36:23;101694.84;;;22.32;20.98
76519;BME280;67029;51.054;13.798;2023-02-28T13:38:43;101693.16;;;22.28;20.95
76519;BME280;67029;51.054;13.798;2023-02-28T13:43:59;101690.62;;;22.34;21.07
76519;BME280;67029;51.054;13.798;2023-02-28T13:46:13;101687.62;;;22.33;19.87
76519;BME280;67029;51.054;13.798;2023-02-28T13:48:43;101678.84;;;22.27;19.61
76519;BME280;67029;51.054;13.798;2023-02-28T13:51:40;101681.31;;;22.14;20.64
76519;BME280;67029;51.054;13.798;2023-02-28T13:53:56;101683.53;;;21.99;20.16
76519;BME280;67029;51.054;13.798;2023-02-28T13:56:31;101682.87;;;21.75;20.26
76519;BME280;67029;51.054;13.798;2023-02-28T13:58:54;101681.25;;;21.39;19.42
76519;BME280;67029;51.054;13.798;2023-02-28T14:01:39;101686.40;;;20.87;20.06
76519;BME280;67029;51.054;13.798;2023-02-28T14:04:09;101686.33;;;20.72;21.18
76519;BME280;67029;51.054;13.798;2023-02-28T14:06:33;101685.88;;;20.67;21.43
76519;BME280;67029;51.054;13.798;2023-02-28T14:11:31;101678.94;;;20.43;20.42
76519;BME280;67029;51.054;13.798;2023-02-28T14:13:48;101670.83;;;20.28;20.38
76519;BME280;67029;51.054;13.798;2023-02-28T14:16:23;101675.58;;;20.03;20.45